KLQK

Pickens County Airport

Pickens, South Carolina, USA
METAR KLQK 172215Z AUTO 25005KT 10SM CLR 28/23 A3009 RMK AO2 T02810227
Observed Flight Rules
Aug-17 @ 22:15 UTC (22 minutes ago) Visual Flight Rules
Wind Visibility Clouds
250° at 5 knots 10 miles
  • Clear skies
Temperatures Readings
Current 28°C / 82°F
Dewpoint 23°C / 73°F
Humidity 74%
Altimeter 30.09" Hg
Pressure 1019 hPa
Elevation 309
METAR KLQK 172215Z AUTO 25005KT 10SM CLR 28/23 A3009 RMK AO2 T02810227
Observed Flight Rules
Aug-17 @ 22:15 UTC
(22 minutes ago)
VFR
Wind Visibility
250° at 5 knots 10 miles
Clouds
  • Clear skies
Temperature Dewpoint
28°C / 82°F 23°C / 73°F
Humidity Altimeter Pressure
74% 30.09" Hg 1019 hPa